Time;durP1;ratioP1;P1;durP2;ratioP2;P2;SDS_P1;SDS_P2;PMS_P1;PMS_P2;Temp;Humidity;BMP_temperature;BMP_pressure;BME280_temperature;BME280_humidity;BME280_pressure;Samples;Min_cycle;Max_cycle;Signal;HPM_P1;HPM_P2
2023/07/12 00:01:21;;;;;;;4.65;1.60;;;;;;;25.42;73.46;99785.50;4975312;28;20474;-69
2023/07/12 00:03:49;;;;;;;3.25;2.10;;;;;;;25.51;72.36;99781.91;4967193;28;20062;-69
2023/07/12 00:06:20;;;;;;;5.78;2.10;;;;;;;25.59;71.93;99772.00;4994223;28;20045;-69
2023/07/12 00:08:46;;;;;;;2.67;1.75;;;;;;;25.48;71.38;99763.53;4970536;28;20088;-69
2023/07/12 00:11:18;;;;;;;4.45;2.15;;;;;;;25.62;70.66;99749.72;4977914;28;20049;-69
2023/07/12 00:13:44;;;;;;;2.85;1.80;;;;;;;25.70;70.26;99763.88;4959695;28;20369;-69
2023/07/12 00:16:21;;;;;;;4.10;1.85;;;;;;;25.78;69.84;99753.97;4971726;28;20257;-69
2023/07/12 00:18:47;;;;;;;4.43;2.40;;;;;;;25.74;69.59;99739.59;4975765;28;20109;-69
2023/07/12 00:21:13;;;;;;;2.17;1.85;;;;;;;25.79;69.59;99755.47;4974058;28;20495;-69
2023/07/12 00:23:38;;;;;;;3.72;1.50;;;;;;;25.73;69.44;99743.59;4970113;28;20026;-69
2023/07/12 00:26:22;;;;;;;3.80;1.70;;;;;;;25.73;70.17;99727.03;4951595;28;20034;-69
2023/07/12 00:28:47;;;;;;;4.60;2.00;;;;;;;25.69;70.30;99718.19;4968850;28;20105;-69
2023/07/12 00:31:13;;;;;;;2.58;1.75;;;;;;;25.70;70.25;99716.97;4995860;28;20034;-69
2023/07/12 00:33:38;;;;;;;3.85;2.08;;;;;;;25.71;70.42;99710.19;4956127;28;20399;-69
2023/07/12 00:36:11;;;;;;;2.33;1.85;;;;;;;25.66;70.69;99713.66;4972977;28;20976;-69
2023/07/12 00:38:36;;;;;;;3.53;2.15;;;;;;;25.63;70.83;99709.84;4978346;28;20049;-69
2023/07/12 00:41:14;;;;;;;2.65;1.75;;;;;;;25.72;70.74;99725.53;4987428;28;20038;-67
2023/07/12 00:43:55;;;;;;;3.00;1.90;;;;;;;25.82;70.87;99751.75;4970886;28;20037;-66
2023/07/12 00:46:47;;;;;;;4.43;1.98;;;;;;;25.68;75.62;99763.59;4970583;28;20042;-67
2023/07/12 00:49:13;;;;;;;6.47;1.58;;;;;;;25.53;76.87;99752.56;4980280;28;20502;-66
2023/07/12 00:51:54;;;;;;;3.92;2.13;;;;;;;25.32;81.07;99758.50;4982056;28;20035;-67
2023/07/12 00:54:25;;;;;;;3.58;1.90;;;;;;;25.01;81.79;99751.47;4969910;28;20262;-67
2023/07/12 00:56:50;;;;;;;3.67;2.03;;;;;;;24.84;83.29;99725.63;4968275;28;20043;-67
2023/07/12 00:59:24;;;;;;;2.80;1.95;;;;;;;24.92;83.00;99731.50;4993330;28;20029;-67
2023/07/12 01:01:52;;;;;;;3.67;2.45;;;;;;;24.82;81.41;99733.59;4984559;28;20035;-66
2023/07/12 01:04:24;;;;;;;3.22;1.80;;;;;;;24.91;82.50;99746.53;4967173;28;20033;-66
2023/07/12 01:06:50;;;;;;;4.35;2.15;;;;;;;25.09;81.31;99818.00;4958908;28;20401;-66
2023/07/12 01:09:18;;;;;;;3.92;2.00;;;;;;;25.05;81.27;99898.13;4980501;28;20026;-67
2023/07/12 01:11:45;;;;;;;3.33;2.03;;;;;;;25.11;80.52;99869.88;4976888;28;20214;-68
2023/07/12 01:14:18;;;;;;;1.90;1.42;;;;;;;24.94;81.52;99806.19;4994650;28;20438;-68
2023/07/12 01:16:48;;;;;;;3.88;1.98;;;;;;;24.83;82.75;99778.44;4988163;28;20048;-68
2023/07/12 01:19:14;;;;;;;5.18;1.45;;;;;;;24.39;83.55;99767.28;4993162;28;20133;-68
2023/07/12 01:21:46;;;;;;;3.03;1.45;;;;;;;24.33;84.01;99738.88;4998355;28;20105;-68
2023/07/12 01:24:13;;;;;;;2.05;1.50;;;;;;;24.45;83.91;99715.84;4991266;28;20026;-68
2023/07/12 01:26:43;;;;;;;6.45;1.55;;;;;;;24.37;85.17;99708.44;4977756;28;20054;-68
2023/07/12 01:29:09;;;;;;;3.88;1.60;;;;;;;24.38;85.75;99705.22;4993019;28;20046;-68
2023/07/12 01:31:36;;;;;;;2.43;1.70;;;;;;;24.34;86.31;99704.63;4973841;28;20042;-68
2023/07/12 01:34:01;;;;;;;3.47;2.00;;;;;;;24.19;87.46;99692.84;4979179;28;20035;-68
2023/07/12 01:36:29;;;;;;;3.03;1.80;;;;;;;23.86;88.85;99681.88;4972444;28;20025;-68
2023/07/12 01:38:57;;;;;;;5.15;2.17;;;;;;;24.15;87.56;99700.50;4994019;28;20041;-67
2023/07/12 01:41:24;;;;;;;2.03;1.50;;;;;;;24.06;88.37;99715.09;4988412;28;20042;-67
2023/07/12 01:43:50;;;;;;;1.98;1.33;;;;;;;24.03;88.68;99718.03;4989354;28;20036;-67
2023/07/12 01:46:16;;;;;;;2.78;1.65;;;;;;;24.08;88.68;99744.88;4972322;28;20070;-67
2023/07/12 01:48:42;;;;;;;2.55;1.40;;;;;;;23.94;88.73;99778.59;4975862;28;20054;-67
2023/07/12 01:51:08;;;;;;;2.35;1.63;;;;;;;24.04;87.82;99808.34;4996819;28;20759;-67
2023/07/12 01:53:35;;;;;;;1.98;1.30;;;;;;;23.99;88.37;99799.94;4996032;28;20065;-67
2023/07/12 01:56:01;;;;;;;1.90;1.40;;;;;;;23.99;89.06;99816.47;5002668;28;20030;-67
2023/07/12 01:58:27;;;;;;;2.55;1.70;;;;;;;24.03;88.71;99819.84;4988210;28;20030;-67
2023/07/12 02:00:56;;;;;;;3.20;1.75;;;;;;;24.00;89.24;99831.75;5000592;28;20121;-67
2023/07/12 02:03:22;;;;;;;1.40;1.20;;;;;;;24.20;87.75;99856.75;4962513;28;20169;-67
2023/07/12 02:05:48;;;;;;;2.80;1.27;;;;;;;24.18;87.39;99851.72;4981720;28;20511;-67
2023/07/12 02:08:17;;;;;;;4.38;1.35;;;;;;;24.04;87.73;99799.34;4971416;28;20563;-67
2023/07/12 02:10:45;;;;;;;4.93;1.27;;;;;;;23.89;88.39;99803.97;4971045;28;20491;-67
2023/07/12 02:13:11;;;;;;;1.13;0.90;;;;;;;23.89;88.58;99828.72;4977721;28;20045;-67
2023/07/12 02:15:37;;;;;;;3.83;1.17;;;;;;;23.89;88.65;99826.75;4978036;28;20040;-67
2023/07/12 02:18:05;;;;;;;1.60;0.65;;;;;;;23.89;89.21;99837.75;4972985;28;20449;-67
2023/07/12 02:20:31;;;;;;;1.92;0.77;;;;;;;23.82;88.68;99835.34;4973922;28;20026;-67
2023/07/12 02:22:57;;;;;;;1.35;0.90;;;;;;;23.72;89.12;99808.34;4981477;28;20034;-67
2023/07/12 02:25:22;;;;;;;6.57;0.93;;;;;;;23.75;88.35;99816.41;4990721;28;20026;-67
2023/07/12 02:27:52;;;;;;;4.03;0.50;;;;;;;23.76;87.55;99804.19;4998886;28;20116;-67
2023/07/12 02:30:23;;;;;;;1.23;0.60;;;;;;;23.73;87.66;99812.63;4996822;28;20033;-67
2023/07/12 02:32:49;;;;;;;;;;;;;;;23.58;88.74;99803.50;4997247;28;20022;-67
2023/07/12 02:35:16;;;;;;;1.95;0.63;;;;;;;23.60;88.37;99820.28;4989509;28;19940;-67
2023/07/12 02:37:41;;;;;;;0.50;0.38;;;;;;;23.52;88.77;99835.63;4997669;28;20447;-67
2023/07/12 02:40:08;;;;;;;0.50;0.40;;;;;;;23.47;89.36;99874.72;4993392;28;20112;-67
2023/07/12 02:42:34;;;;;;;0.40;0.40;;;;;;;23.55;89.82;99887.69;4999820;28;20030;-67
2023/07/12 02:44:59;;;;;;;1.85;0.45;;;;;;;23.54;89.59;99871.66;4988935;28;20057;-67
2023/07/12 02:47:25;;;;;;;0.40;0.25;;;;;;;23.62;89.20;99834.34;4991811;28;20041;-67
2023/07/12 02:49:50;;;;;;;0.38;0.38;;;;;;;23.61;88.74;99814.34;4993006;28;20106;-67
2023/07/12 02:52:16;;;;;;;1.33;0.63;;;;;;;23.50;88.94;99847.06;4995907;28;20033;-67
2023/07/12 02:54:41;;;;;;;0.77;0.35;;;;;;;23.60;88.59;99851.31;4997300;28;20038;-68
2023/07/12 02:57:10;;;;;;;0.60;0.40;;;;;;;23.57;88.69;99868.75;4980083;28;20038;-68
2023/07/12 02:59:36;;;;;;;0.57;0.40;;;;;;;23.58;88.82;99928.00;4997731;28;20101;-68
2023/07/12 03:02:02;;;;;;;0.90;0.40;;;;;;;23.67;88.06;99999.50;4976816;28;20112;-68
2023/07/12 03:04:27;;;;;;;1.00;0.52;;;;;;;23.60;88.55;100007.28;4966564;28;20134;-67
2023/07/12 03:06:53;;;;;;;0.77;0.40;;;;;;;23.47;89.85;99955.22;4959545;28;20121;-68
2023/07/12 03:09:18;;;;;;;0.50;0.40;;;;;;;23.15;91.03;99953.81;4976476;28;20035;-68
2023/07/12 03:11:48;;;;;;;2.03;0.32;;;;;;;22.95;90.06;99920.53;4984143;28;20493;-68
2023/07/12 03:14:15;;;;;;;0.47;0.30;;;;;;;22.83;93.22;99913.19;4987515;28;20059;-68
2023/07/12 03:16:41;;;;;;;0.40;0.30;;;;;;;22.90;93.77;99892.91;4993222;28;20207;-68
2023/07/12 03:19:07;;;;;;;1.85;0.68;;;;;;;23.08;93.00;99844.22;4990543;28;20030;-68
2023/07/12 03:21:52;;;;;;;2.38;0.43;;;;;;;23.19;92.55;99833.50;4998228;28;20029;-68
2023/07/12 03:24:18;;;;;;;0.30;0.30;;;;;;;23.20;92.80;99787.56;4878875;29;20056;-68
2023/07/12 03:26:43;;;;;;;1.52;0.73;;;;;;;23.07;92.63;99749.25;4895280;29;20111;-67
2023/07/12 03:29:09;;;;;;;0.52;0.47;;;;;;;23.04;92.28;99730.97;4872693;29;20071;-68
2023/07/12 03:31:34;;;;;;;1.08;0.63;;;;;;;23.22;90.77;99754.88;4895287;29;20100;-68
2023/07/12 03:34:00;;;;;;;0.25;0.20;;;;;;;23.21;90.57;99770.59;4903906;29;20025;-68
2023/07/12 03:36:29;;;;;;;0.95;0.70;;;;;;;23.12;90.11;99758.88;4891610;29;20080;-68
2023/07/12 03:38:55;;;;;;;0.40;0.30;;;;;;;23.07;90.72;99730.03;4894236;29;20081;-68
2023/07/12 03:41:24;;;;;;;0.40;0.25;;;;;;;23.10;90.25;99728.34;4900062;29;20548;-67
2023/07/12 03:43:49;;;;;;;0.85;0.50;;;;;;;23.16;90.12;99707.25;4896508;29;20529;-68
2023/07/12 03:46:16;;;;;;;2.13;0.65;;;;;;;22.94;90.98;99734.19;4900679;29;20040;-68
2023/07/12 03:48:42;;;;;;;0.43;0.40;;;;;;;22.88;91.19;99725.78;4897827;29;20410;-68
2023/07/12 03:51:10;;;;;;;0.90;0.65;;;;;;;22.92;91.06;99731.91;4894201;29;20044;-68
2023/07/12 03:53:36;;;;;;;1.45;0.60;;;;;;;22.94;91.33;99734.94;4888629;29;20036;-68
2023/07/12 03:56:04;;;;;;;0.45;0.40;;;;;;;22.98;90.76;99734.78;4897596;29;20249;-68
2023/07/12 03:58:33;;;;;;;0.80;0.45;;;;;;;22.91;91.38;99751.59;4897045;29;20040;-68
2023/07/12 04:01:04;;;;;;;0.75;0.65;;;;;;;22.91;91.38;99749.63;4920980;28;20118;-68
2023/07/12 04:03:30;;;;;;;0.30;0.30;;;;;;;22.82;92.56;99759.84;4981180;28;20034;-68
2023/07/12 04:05:56;;;;;;;0.40;0.40;;;;;;;22.81;92.60;99761.81;4990691;28;20030;-68
2023/07/12 04:08:22;;;;;;;0.88;0.40;;;;;;;22.68;93.67;99758.50;4992042;28;20038;-68
2023/07/12 04:10:54;;;;;;;0.95;0.50;;;;;;;22.71;93.01;99774.03;4983360;28;20085;-68
2023/07/12 04:13:22;;;;;;;0.50;0.40;;;;;;;22.50;93.35;99782.38;4990923;28;20040;-68
2023/07/12 04:15:48;;;;;;;0.85;0.50;;;;;;;22.52;94.03;99782.69;4975953;28;20068;-68
2023/07/12 04:18:14;;;;;;;0.93;0.57;;;;;;;22.58;95.22;99787.16;4985972;28;20030;-68
2023/07/12 04:20:40;;;;;;;1.08;0.43;;;;;;;22.63;95.61;99797.53;4983805;28;20554;-68
2023/07/12 04:23:06;;;;;;;0.50;0.40;;;;;;;22.74;95.65;99799.81;4989425;28;20113;-68
2023/07/12 04:25:32;;;;;;;2.33;0.57;;;;;;;22.69;95.65;99806.69;4983971;28;20044;-68
2023/07/12 04:27:58;;;;;;;1.17;0.70;;;;;;;22.71;95.77;99819.94;4983378;28;20109;-68
2023/07/12 04:30:23;;;;;;;0.40;0.40;;;;;;;22.79;95.51;99821.94;4985263;28;20036;-68
2023/07/12 04:32:51;;;;;;;0.57;0.57;;;;;;;22.87;95.10;99827.88;4991517;28;20113;-68
2023/07/12 04:35:17;;;;;;;0.50;0.38;;;;;;;22.88;95.50;99849.41;4989417;28;20096;-68
2023/07/12 04:37:49;;;;;;;2.72;0.70;;;;;;;22.89;95.33;99858.41;4987461;28;20019;-68
2023/07/12 04:40:15;;;;;;;1.25;0.80;;;;;;;22.79;95.91;99879.63;4993450;28;20038;-68
2023/07/12 04:42:41;;;;;;;1.42;0.73;;;;;;;22.78;95.59;99885.56;4976087;28;20026;-68
2023/07/12 04:45:09;;;;;;;2.05;0.70;;;;;;;22.82;95.89;99886.94;4982433;28;20105;-68
2023/07/12 04:47:35;;;;;;;1.30;0.60;;;;;;;22.85;94.90;99888.00;4979101;28;20514;-68
2023/07/12 04:50:03;;;;;;;0.52;0.52;;;;;;;22.75;95.53;99891.97;4989981;28;20458;-68
2023/07/12 04:52:31;;;;;;;0.55;0.40;;;;;;;22.83;95.03;99898.69;4992475;28;20047;-67
2023/07/12 04:55:00;;;;;;;0.85;0.65;;;;;;;22.86;95.52;99893.03;4987634;28;20076;-68
2023/07/12 04:57:25;;;;;;;0.82;0.60;;;;;;;22.88;94.79;99901.59;4998174;28;20045;-68
2023/07/12 04:59:51;;;;;;;1.17;0.52;;;;;;;22.87;94.27;99894.56;4991307;28;20034;-67
2023/07/12 05:02:16;;;;;;;1.95;0.82;;;;;;;22.73;95.39;99919.88;4976603;28;20523;-68
2023/07/12 05:04:43;;;;;;;1.00;0.50;;;;;;;22.82;95.97;99910.91;4976249;28;20057;-68
2023/07/12 05:07:09;;;;;;;0.50;0.40;;;;;;;22.90;95.17;99901.91;4976128;28;20468;-68
2023/07/12 05:09:36;;;;;;;0.68;0.43;;;;;;;22.99;95.09;99874.44;4989064;28;20077;-67
2023/07/12 05:12:02;;;;;;;1.17;0.65;;;;;;;22.89;95.85;99878.41;4978393;28;20050;-68
2023/07/12 05:14:28;;;;;;;0.47;0.40;;;;;;;22.96;94.69;99874.56;4957470;28;20035;-68
2023/07/12 05:16:54;;;;;;;1.58;0.50;;;;;;;22.94;95.38;99886.03;4985815;28;20031;-68
2023/07/12 05:19:19;;;;;;;0.38;0.38;;;;;;;23.00;95.33;99905.41;4976112;28;20034;-68
2023/07/12 05:21:45;;;;;;;0.50;0.47;;;;;;;22.99;94.92;99907.41;4982451;28;20097;-69
2023/07/12 05:24:10;;;;;;;1.08;0.45;;;;;;;22.93;95.62;99914.72;4989891;28;20031;-69
2023/07/12 05:26:36;;;;;;;0.40;0.40;;;;;;;22.87;95.64;99911.06;4980865;28;20153;-69
2023/07/12 05:29:01;;;;;;;0.52;0.47;;;;;;;22.94;96.07;99938.22;4992437;28;20057;-69
2023/07/12 05:31:26;;;;;;;1.23;0.52;;;;;;;22.92;95.99;99953.63;4981399;28;20038;-69
2023/07/12 05:33:52;;;;;;;0.75;0.55;;;;;;;23.00;95.61;99969.38;4965339;28;20041;-69
2023/07/12 05:36:17;;;;;;;0.80;0.60;;;;;;;23.02;95.15;99979.91;4990945;28;20038;-69
2023/07/12 05:38:43;;;;;;;0.38;0.38;;;;;;;22.94;95.13;99984.91;5000896;28;20679;-69
2023/07/12 05:41:09;;;;;;;1.88;0.77;;;;;;;22.94;96.05;99973.94;4991456;28;20480;-69
2023/07/12 05:43:34;;;;;;;0.50;0.50;;;;;;;22.96;95.98;99976.22;4979683;28;20101;-69
2023/07/12 05:46:00;;;;;;;1.00;0.60;;;;;;;22.96;95.89;99987.22;4984082;28;20030;-69
2023/07/12 05:48:27;;;;;;;0.70;0.50;;;;;;;22.95;95.25;100002.94;4985825;28;20042;-67
2023/07/12 05:50:59;;;;;;;1.15;0.70;;;;;;;22.87;95.61;99995.44;4982524;28;20848;-67
2023/07/12 05:53:24;;;;;;;1.27;0.65;;;;;;;22.76;96.56;99995.88;4978324;28;20104;-69
2023/07/12 05:55:57;;;;;;;2.25;0.70;;;;;;;22.91;95.98;99999.56;5000203;28;20669;-69
2023/07/12 05:58:24;;;;;;;0.70;0.57;;;;;;;22.85;95.13;99989.63;4991242;28;20034;-69
2023/07/12 06:01:20;;;;;;;2.28;0.50;;;;;;;22.81;95.83;100000.78;4985707;28;20033;-69
2023/07/12 06:03:46;;;;;;;0.45;0.45;;;;;;;22.86;95.41;99994.66;4938213;29;20539;-69
2023/07/12 06:06:12;;;;;;;1.15;0.52;;;;;;;22.83;95.69;99992.06;4914115;29;20043;-68
2023/07/12 06:08:37;;;;;;;0.57;0.40;;;;;;;22.87;95.81;99990.72;4916515;29;20040;-69
2023/07/12 06:11:03;;;;;;;1.23;0.60;;;;;;;22.92;95.48;99979.13;4940399;29;20059;-67
2023/07/12 06:13:29;;;;;;;0.70;0.50;;;;;;;22.90;95.71;99965.06;4936882;29;20084;-66
2023/07/12 06:15:55;;;;;;;1.02;0.50;;;;;;;22.98;95.61;99957.28;4912413;29;20085;-69
2023/07/12 06:18:20;;;;;;;0.50;0.43;;;;;;;23.06;96.42;99939.31;4938836;29;20044;-69
2023/07/12 06:20:55;;;;;;;0.80;0.70;;;;;;;23.36;96.08;99971.41;4928289;29;20052;-68
2023/07/12 06:23:21;;;;;;;1.27;1.17;;;;;;;23.66;95.25;99969.69;4911165;29;20577;-68
2023/07/12 06:25:46;;;;;;;0.70;0.57;;;;;;;23.88;94.39;100003.28;4939541;29;20037;-69
2023/07/12 06:28:12;;;;;;;1.38;0.75;;;;;;;24.03;93.98;100004.22;4935277;29;20501;-69
2023/07/12 06:30:37;;;;;;;3.92;1.13;;;;;;;24.22;94.33;100000.19;4940907;29;20045;-69
2023/07/12 06:33:03;;;;;;;1.60;0.95;;;;;;;24.19;93.64;100003.88;4926581;29;20050;-69
2023/07/12 06:35:30;;;;;;;1.60;0.95;;;;;;;24.02;91.61;100000.69;4935255;29;20136;-68
2023/07/12 06:37:56;;;;;;;1.17;0.85;;;;;;;23.87;91.17;99993.50;4924489;29;20043;-69
2023/07/12 06:40:21;;;;;;;1.25;0.90;;;;;;;23.95;90.48;99991.97;4932559;28;20050;-69
2023/07/12 06:42:47;;;;;;;2.13;1.05;;;;;;;24.00;90.01;99977.59;4973715;28;20426;-69
2023/07/12 06:45:13;;;;;;;1.65;1.00;;;;;;;24.11;90.33;99986.91;4983295;28;20491;-69
2023/07/12 06:47:39;;;;;;;1.17;0.80;;;;;;;24.32;90.46;99995.41;4967288;28;20034;-69
2023/07/12 06:50:05;;;;;;;2.50;1.00;;;;;;;24.39;89.63;99986.81;4997485;28;20673;-69
2023/07/12 06:52:30;;;;;;;1.73;1.05;;;;;;;24.32;88.63;99976.91;4992184;28;20704;-69
2023/07/12 06:54:56;;;;;;;3.00;1.17;;;;;;;24.20;87.91;99975.09;4984192;28;20026;-66
2023/07/12 06:57:21;;;;;;;1.35;0.90;;;;;;;23.96;88.75;99977.75;4976339;28;20025;-69
2023/07/12 06:59:47;;;;;;;7.40;1.00;;;;;;;23.98;89.15;99977.28;4979855;28;20066;-69
2023/07/12 07:02:14;;;;;;;1.17;0.95;;;;;;;24.07;90.47;99977.28;4986927;28;20036;-68
2023/07/12 07:04:39;;;;;;;1.10;0.82;;;;;;;24.27;88.51;99974.78;4968198;28;20033;-69
2023/07/12 07:07:05;;;;;;;1.48;0.95;;;;;;;24.32;89.32;99985.16;4987148;28;20414;-68
2023/07/12 07:09:30;;;;;;;1.77;1.17;;;;;;;24.31;89.23;99991.13;4994510;28;20030;-69
2023/07/12 07:11:56;;;;;;;1.55;1.27;;;;;;;24.45;88.25;99996.00;4990156;28;20104;-68
2023/07/12 07:14:21;;;;;;;1.13;0.93;;;;;;;24.44;86.90;100014.50;4968665;28;20034;-68
2023/07/12 07:17:07;;;;;;;1.23;0.90;;;;;;;24.44;86.99;100022.75;4956343;28;20030;-67
2023/07/12 07:19:32;;;;;;;1.73;1.10;;;;;;;24.65;87.87;100026.50;4921618;29;20056;-68
2023/07/12 07:21:58;;;;;;;0.93;0.73;;;;;;;24.93;86.11;100034.16;4927856;29;20568;-68
2023/07/12 07:24:23;;;;;;;0.98;0.73;;;;;;;25.10;85.33;100031.03;4929995;29;20108;-66
2023/07/12 07:26:49;;;;;;;1.05;0.80;;;;;;;25.20;84.35;100016.72;4928917;29;20043;-69
2023/07/12 07:29:14;;;;;;;0.85;0.80;;;;;;;25.19;84.79;100020.69;4933344;29;20031;-69
2023/07/12 07:31:40;;;;;;;1.80;0.80;;;;;;;25.53;83.44;100017.41;4941500;29;20051;-67
2023/07/12 07:34:05;;;;;;;1.00;0.65;;;;;;;25.44;80.84;100034.03;4930748;29;20052;-66
2023/07/12 07:36:31;;;;;;;0.60;0.60;;;;;;;25.42;79.13;100033.72;4936737;29;20043;-67
2023/07/12 07:38:56;;;;;;;0.80;0.68;;;;;;;25.44;77.92;100041.53;4936040;29;20031;-67
2023/07/12 07:41:42;;;;;;;6.57;0.90;;;;;;;25.63;77.63;100059.47;4938164;29;20150;-66
2023/07/12 07:44:08;;;;;;;0.75;0.70;;;;;;;25.50;77.18;100062.50;4904773;29;20134;-67
2023/07/12 07:46:53;;;;;;;1.30;0.73;;;;;;;25.28;78.28;100067.50;4910724;29;20797;-67
2023/07/12 07:49:39;;;;;;;3.00;0.80;;;;;;;25.25;77.68;100056.66;4848960;29;20049;-63
2023/07/12 07:52:05;;;;;;;0.63;0.63;;;;;;;25.01;78.72;100067.66;4817845;29;20145;-67
2023/07/12 07:54:30;;;;;;;1.15;0.90;;;;;;;24.89;79.56;100074.91;4810223;29;20050;-65
2023/07/12 07:56:56;;;;;;;1.10;0.80;;;;;;;24.88;77.57;100073.41;4800026;29;20038;-67
2023/07/12 07:59:22;;;;;;;1.15;1.00;;;;;;;24.65;76.99;100070.56;4805999;29;20034;-66
2023/07/12 08:01:48;;;;;;;1.10;0.70;;;;;;;24.48;76.82;100072.94;4800537;29;20050;-66
2023/07/12 08:04:13;;;;;;;0.98;0.50;;;;;;;24.51;75.27;100084.97;4817450;29;20046;-64
2023/07/12 08:06:39;;;;;;;0.77;0.60;;;;;;;24.30;76.94;100095.00;4811557;29;20050;-64
2023/07/12 08:09:06;;;;;;;1.35;0.77;;;;;;;24.45;76.88;100082.09;4819110;29;20058;-67
2023/07/12 08:11:32;;;;;;;2.90;0.80;;;;;;;24.66;77.62;100078.34;4803148;29;20031;-65
2023/07/12 08:13:58;;;;;;;0.70;0.63;;;;;;;24.92;77.12;100079.50;4810632;29;20051;-65
2023/07/12 08:16:27;;;;;;;1.52;0.93;;;;;;;25.31;76.15;100082.34;4815863;29;21011;-65
2023/07/12 08:18:53;;;;;;;2.85;0.98;;;;;;;25.63;75.17;100078.78;4812219;29;20429;-63
2023/07/12 08:21:19;;;;;;;2.17;0.70;;;;;;;25.85;74.11;100079.22;4842275;29;20058;-65
2023/07/12 08:23:44;;;;;;;1.20;0.70;;;;;;;26.20;71.52;100082.91;4871892;29;20088;-66
2023/07/12 08:26:10;;;;;;;0.85;0.80;;;;;;;26.47;67.53;100090.91;4888027;29;20078;-63
2023/07/12 08:28:56;;;;;;;0.65;0.60;;;;;;;26.32;66.44;100087.41;4936761;28;20054;-64
2023/07/12 08:31:21;;;;;;;0.50;0.50;;;;;;;26.17;69.11;100092.13;4900269;29;20052;-66
2023/07/12 08:33:49;;;;;;;0.93;0.63;;;;;;;26.32;66.42;100094.91;4904694;29;20051;-66
2023/07/12 08:36:15;;;;;;;1.00;0.82;;;;;;;26.17;67.95;100097.66;4908042;29;20049;-66
2023/07/12 08:38:41;;;;;;;3.03;0.73;;;;;;;26.12;66.75;100109.38;4896858;29;20036;-65
2023/07/12 08:41:18;;;;;;;1.10;0.60;;;;;;;25.98;67.48;100117.63;4903590;29;20092;-65
2023/07/12 08:43:44;;;;;;;0.90;0.68;;;;;;;25.77;69.51;100108.41;4887577;29;20060;-66
2023/07/12 08:46:22;;;;;;;1.38;0.73;;;;;;;25.72;69.96;100115.38;4899927;29;20040;-65
2023/07/12 08:49:00;;;;;;;1.23;0.90;;;;;;;25.76;69.01;100117.94;4886224;29;20049;-64
2023/07/12 08:51:31;;;;;;;4.25;0.68;;;;;;;25.98;68.01;100123.16;4898218;29;20048;-65
2023/07/12 08:53:57;;;;;;;1.27;0.65;;;;;;;25.96;65.62;100120.09;4877819;29;20051;-63
2023/07/12 08:56:24;;;;;;;3.58;1.00;;;;;;;25.66;67.15;100124.75;4976325;23;20142;-64
2023/07/12 08:58:52;;;;;;;1.02;0.80;;;;;;;25.71;67.82;100122.09;4969280;28;20668;-63
2023/07/12 09:01:59;;;;;;;2.65;0.65;;;;;;;26.09;68.01;100126.13;4971766;23;20061;-64
2023/07/12 09:04:31;;;;;;;0.90;0.73;;;;;;;26.31;66.90;100126.53;4975250;28;20030;-62
2023/07/12 09:07:01;;;;;;;0.65;0.60;;;;;;;26.56;66.56;100137.03;4937487;28;20468;-63
2023/07/12 09:09:27;;;;;;;3.92;1.00;;;;;;;26.68;65.73;100136.75;4960811;28;20035;-64
2023/07/12 09:11:54;;;;;;;3.00;1.08;;;;;;;26.66;64.09;100128.16;4945864;28;20550;-60
2023/07/12 09:14:23;;;;;;;3.08;0.90;;;;;;;26.52;63.60;100130.91;4951142;28;20078;-64
2023/07/12 09:16:55;;;;;;;3.60;1.00;;;;;;;26.78;64.02;100127.13;4951838;28;20059;-65
2023/07/12 09:19:25;;;;;;;0.85;0.65;;;;;;;26.97;62.52;100146.25;4951669;28;20437;-64
2023/07/12 09:21:56;;;;;;;1.23;0.82;;;;;;;26.69;62.00;100143.78;4947379;28;20044;-61
2023/07/12 09:24:31;;;;;;;1.35;0.90;;;;;;;26.61;62.85;100141.91;4947421;28;20039;-63
2023/07/12 09:27:16;;;;;;;34.20;12.73;;;;;;;26.45;63.41;100140.38;4942000;28;20147;-64
2023/07/12 09:29:41;;;;;;;28.67;11.02;;;;;;;26.58;64.81;100148.34;4956071;28;20531;-64
2023/07/12 09:32:27;;;;;;;22.90;8.07;;;;;;;26.55;65.36;100138.28;4949128;28;20024;-64
2023/07/12 09:34:54;;;;;;;21.17;9.05;;;;;;;26.74;63.46;100145.16;4951296;28;20403;-64
2023/07/12 09:37:24;;;;;;;34.80;16.25;;;;;;;26.81;61.94;100149.53;4963700;28;20110;-64
2023/07/12 09:40:00;;;;;;;11.50;4.40;;;;;;;26.86;62.21;100149.63;4949131;29;20381;-64
2023/07/12 09:42:28;;;;;;;5.88;1.50;;;;;;;27.19;60.87;100152.13;4951363;28;20134;-64
2023/07/12 09:44:54;;;;;;;3.22;1.00;;;;;;;27.39;61.43;100144.66;4950229;28;20760;-63
2023/07/12 09:47:41;;;;;;;2.80;0.80;;;;;;;27.66;60.04;100151.81;4954494;28;20043;-62
2023/07/12 09:50:39;;;;;;;0.60;0.60;;;;;;;27.81;58.88;100157.28;4954396;29;20485;-64
2023/07/12 09:53:26;;;;;;;1.42;0.80;;;;;;;27.56;58.04;100153.19;4946615;28;20650;-64
2023/07/12 09:56:21;;;;;;;1.00;0.77;;;;;;;27.77;61.13;100148.41;4976092;28;20035;-64
2023/07/12 09:59:21;;;;;;;0.60;0.57;;;;;;;28.15;59.26;100140.59;4943847;28;20052;-64
2023/07/12 10:01:54;;;;;;;1.05;0.60;;;;;;;28.43;55.73;100136.09;4952379;28;20035;-64
2023/07/12 10:04:31;;;;;;;4.95;1.15;;;;;;;28.76;54.73;100145.97;4947363;28;20051;-64
2023/07/12 10:06:56;;;;;;;1.20;0.55;;;;;;;28.98;54.78;100146.13;4945052;28;20411;-63
2023/07/12 10:09:26;;;;;;;2.88;1.13;;;;;;;29.08;54.06;100155.78;4953429;28;20035;-64
2023/07/12 10:12:11;;;;;;;0.82;0.68;;;;;;;28.81;53.15;100157.09;4950815;29;20469;-64
2023/07/12 10:14:41;;;;;;;1.20;1.00;;;;;;;28.53;53.49;100151.28;4968115;28;20047;-64
2023/07/12 10:17:18;;;;;;;1.55;0.77;;;;;;;28.41;53.38;100155.22;4947719;28;20043;-64
2023/07/12 10:19:49;;;;;;;1.05;0.75;;;;;;;28.31;54.07;100147.56;4939557;28;20654;-64
2023/07/12 10:22:28;;;;;;;1.35;0.80;;;;;;;28.27;53.92;100145.00;4938595;29;20043;-64
2023/07/12 10:24:55;;;;;;;1.63;0.50;;;;;;;28.49;53.77;100150.75;4980929;28;20047;-64
2023/07/12 10:27:28;;;;;;;0.80;0.60;;;;;;;28.35;53.83;100137.78;4944007;28;20027;-64
2023/07/12 10:29:56;;;;;;;0.80;0.65;;;;;;;28.33;55.76;100153.38;4935976;29;20054;-63
2023/07/12 10:32:27;;;;;;;0.95;0.70;;;;;;;28.50;54.25;100140.41;4931931;29;20068;-64
2023/07/12 10:35:23;;;;;;;1.30;0.50;;;;;;;28.68;53.62;100144.91;4936086;29;20043;-64
2023/07/12 10:37:52;;;;;;;5.03;0.95;;;;;;;28.94;52.82;100151.16;4945881;28;20027;-65
2023/07/12 10:40:30;;;;;;;1.40;0.80;;;;;;;29.04;52.22;100138.59;4966906;28;20094;-64
2023/07/12 10:42:59;;;;;;;3.05;0.77;;;;;;;29.15;51.37;100158.16;4931795;28;20035;-64
2023/07/12 10:45:29;;;;;;;0.55;0.55;;;;;;;29.30;51.66;100164.31;4943843;29;20068;-64
2023/07/12 10:47:57;;;;;;;1.25;0.50;;;;;;;29.52;50.76;100172.00;4942759;28;20035;-63
2023/07/12 10:50:29;;;;;;;1.20;0.73;;;;;;;29.59;50.50;100166.75;4949120;28;20046;-64
2023/07/12 10:53:21;;;;;;;0.70;0.70;;;;;;;29.68;48.69;100171.31;4940216;28;20024;-63
2023/07/12 10:56:10;;;;;;;6.70;1.10;;;;;;;29.70;47.65;100177.13;4976835;28;20046;-65
2023/07/12 10:58:59;;;;;;;1.88;0.68;;;;;;;29.31;49.79;100166.56;4945551;29;20114;-65
2023/07/12 11:01:43;;;;;;;1.45;0.65;;;;;;;29.13;51.21;100171.75;4941936;28;20516;-63
2023/07/12 11:04:45;;;;;;;1.17;0.73;;;;;;;28.81;50.45;100170.97;4946724;29;20023;-63
2023/07/12 11:07:10;;;;;;;0.93;0.75;;;;;;;28.63;50.55;100173.34;4906307;29;20311;-62
2023/07/12 11:09:48;;;;;;;2.53;0.80;;;;;;;28.64;51.29;100178.41;4931249;29;20502;-62
2023/07/12 11:12:18;;;;;;;0.43;0.43;;;;;;;28.46;51.99;100184.22;4943476;29;20392;-62
2023/07/12 11:14:50;;;;;;;1.85;0.80;;;;;;;28.49;52.81;100186.78;4952644;28;20090;-64
2023/07/12 11:17:20;;;;;;;1.73;0.77;;;;;;;28.83;51.91;100195.44;4980872;28;20119;-61
2023/07/12 11:19:50;;;;;;;0.90;0.70;;;;;;;29.17;50.60;100186.19;4952633;28;20107;-64
2023/07/12 11:22:17;;;;;;;1.20;1.00;;;;;;;29.12;50.57;100195.94;4961884;28;20071;-63
2023/07/12 11:24:45;;;;;;;0.50;0.50;;;;;;;29.26;50.33;100194.31;4953399;28;20035;-64
2023/07/12 11:27:41;;;;;;;4.53;0.50;;;;;;;29.67;49.38;100184.47;4946649;28;20030;-64
2023/07/12 11:30:36;;;;;;;0.73;0.65;;;;;;;29.92;47.60;100180.03;4938378;28;20051;-64
2023/07/12 11:33:29;;;;;;;0.50;0.47;;;;;;;30.05;47.06;100183.88;4934038;28;20095;-65
2023/07/12 11:36:01;;;;;;;2.13;0.65;;;;;;;29.95;47.87;100192.94;4940310;29;20051;-63
2023/07/12 11:38:30;;;;;;;2.13;0.70;;;;;;;30.09;48.61;100194.75;4950998;28;20038;-63
2023/07/12 11:41:01;;;;;;;1.25;0.60;;;;;;;30.39;47.65;100201.44;4951831;28;20031;-65